Havbugvin — XPYL — position and weather

sailwx.info

Track history (hours):
 
Tides and Currents Weather Stations Pressure Air Temp Water Temp Dewpoint Dewpoint Depression Visibility Wind Speed Wind Dir Waves Ship Positions

Havbugvin

Last reported at 2017-May-22 04:32 UTC. Time now 2017-May-22 17:21 UTC.
Position N 61°60' W 006°46'.

Length 38 m.

Type: Fishing. MMSI: 231181000.

Date/timePositionNaut miles runAvg speedWind from/ knotsBaromVisibWave heightAir tempDewpointWater temp
2017-May-22 04:32N 61°60' W 006°46'0 5.8
2017-May-22 04:30N 61°60' W 006°45'4 7.5
2017-May-22 03:58N 61°56' W 006°44'105 2.2
2017-May-20 03:45N 60°23' W 008°24'  
2017-May-15 11:17N 60°01' W 007°10'0 1.5
2017-May-15 10:58N 60°01' W 007°11'1 1.5
2017-May-15 10:18N 60°02' W 007°13'1 1.0
2017-May-15 09:40N 60°01' W 007°12'1 9.3
2017-May-15 09:30N 60°01' W 007°09'1 2.5
2017-May-15 08:54N 59°60' W 007°08'5 7.3
2017-May-15 08:09N 60°00' W 007°19'2 7.6
2017-May-15 07:57N 60°00' W 007°22'2 2.3
2017-May-15 07:10N 60°02' W 007°21'1 8.2
2017-May-15 07:00N 60°02' W 007°19'5 7.6
2017-May-15 06:19N 60°01' W 007°08'2 5.5
2017-May-15 06:00N 60°00' W 007°05'0 0.5
2017-May-15 05:29N 59°60' W 007°06'  
2017-May-12 11:56N 60°06' W 007°17'4 6.7
2017-May-12 11:16N 60°06' W 007°26'1 1.8
2017-May-12 10:55N 60°05' W 007°26'1 1.1
2017-May-12 09:33N 60°04' W 007°26'0 1.4
2017-May-12 09:24N 60°03' W 007°26'1 1.4
2017-May-12 08:56N 60°03' W 007°27'1 1.5
2017-May-12 08:24N 60°02' W 007°27'1 1.4
2017-May-12 08:00N 60°01' W 007°27'1 1.1
2017-May-12 07:30N 60°01' W 007°27'4 6.6
2017-May-12 06:54N 60°03' W 007°20'  
Track history (hours):
 
Tides and Currents Weather Stations Pressure Air Temp Water Temp Dewpoint Dewpoint Depression Visibility Wind Speed Wind Dir Waves Ship Positions

Havbugvin

Last reported at 2017-May-22 04:32 UTC. Time now 2017-May-22 17:21 UTC.
Position N 61°60' W 006°46'.

Length 38 m.

Type: Fishing. MMSI: 231181000.

Date/timePositionNaut miles runAvg speedWind from/ knotsBaromVisibWave heightAir tempDewpointWater temp
2017-May-22 04:32N 61°60' W 006°46'0 5.8
2017-May-22 04:30N 61°60' W 006°45'4 7.5
2017-May-22 03:58N 61°56' W 006°44'105 2.2
2017-May-20 03:45N 60°23' W 008°24'  
2017-May-15 11:17N 60°01' W 007°10'0 1.5
2017-May-15 10:58N 60°01' W 007°11'1 1.5
2017-May-15 10:18N 60°02' W 007°13'1 1.0
2017-May-15 09:40N 60°01' W 007°12'1 9.3
2017-May-15 09:30N 60°01' W 007°09'1 2.5
2017-May-15 08:54N 59°60' W 007°08'5 7.3
2017-May-15 08:09N 60°00' W 007°19'2 7.6
2017-May-15 07:57N 60°00' W 007°22'2 2.3
2017-May-15 07:10N 60°02' W 007°21'1 8.2
2017-May-15 07:00N 60°02' W 007°19'5 7.6
2017-May-15 06:19N 60°01' W 007°08'2 5.5
2017-May-15 06:00N 60°00' W 007°05'0 0.5
2017-May-15 05:29N 59°60' W 007°06'  
2017-May-12 11:56N 60°06' W 007°17'4 6.7
2017-May-12 11:16N 60°06' W 007°26'1 1.8
2017-May-12 10:55N 60°05' W 007°26'1 1.1
2017-May-12 09:33N 60°04' W 007°26'0 1.4
2017-May-12 09:24N 60°03' W 007°26'1 1.4
2017-May-12 08:56N 60°03' W 007°27'1 1.5
2017-May-12 08:24N 60°02' W 007°27'1 1.4
2017-May-12 08:00N 60°01' W 007°27'1 1.1
2017-May-12 07:30N 60°01' W 007°27'4 6.6
2017-May-12 06:54N 60°03' W 007°20'  

Dump ship's entire track history